首页
METAR-TAF:

METAR-TAF

机场 :

Hurlburt Field

Mary Esther, 佛罗里达州, 美国

纬度: 30-25N, 经度: 086-41W, 海拔: 12米

当前天气观测

该预报发布于16分钟前的23:42 UTC
风速5节,风向东北
温度 10°C
湿度 93%
气压 1016 hPa
能見度: 4.8公里
多云层高于200英尺
大雨, 轻雾

METAR: KHRT 022342Z 04005KT 3SM +RA BR BKN002 10/09 A2999 RMK AO2A SLP157 $

时间: 17:58 (23:58 UTC)

预报

该预报发布于1小时和18分钟前的22:40 UTC
预报有效从02日的 22点(UTC)到 03日的 24点(UTC)
风速9节,风向
能见度10公里或以上
阴天层高于400英尺
小毛毛雨
短暂存在
从 02日的 22点(UTC)到 03日的 02点(UTC)
阴天层高于400英尺
成为
从 03日的 01点(UTC)到 03日的 02点(UTC)
风速12节,风向,有时为20节阵风
能見度: 8000
多云层高于1000英尺
多云层高于3000英尺
阵雨
成为
从 03日的 08点(UTC)到 03日的 09点(UTC)
风速10节,风向北转西北,有时为15节阵风
能见度10公里或以上
多云层高于1000英尺
多云层高于5000英尺

TAF: KHRT 022240Z 0222/0324 10009KT 9999 -DZ OVC004 QNH2994INS TEMPO 0222/0302 OVC004 BECMG 0301/0302 36012G20KT 8000 SHRA BKN010 BKN030 QNH2991INS BECMG 0308/0309 33010G15KT 9999 NSW BKN010 BKN050 QNH2990INS TX13/0301Z TN08/0309Z

超过4000个机场的气象观测和天气预报(METAR&TAF报告)。

可查询的气象台以黄色和红色小点在地图上表示。

将鼠标移到小点上方,可查看气象台名称。

然后点击查看天气观测和预报。

如需切换地图:点击带黑十字的绿色按钮放大地图;点击带横线的绿色按钮缩小地图;或者点击绿色箭头查看邻近地区的地图。


METAR-TAF: